createdAt,value
2023-02-06T06:18:47.610Z,-1.57
2023-02-06T06:28:46.785Z,-1.65
2023-02-06T06:38:46.728Z,-1.76
2023-02-06T06:48:46.596Z,-1.71
2023-02-06T06:58:46.865Z,-1.74
2023-02-06T07:08:46.681Z,-1.81
2023-02-06T07:18:46.759Z,-1.85
2023-02-06T07:28:46.854Z,-1.86
2023-02-06T07:38:46.708Z,-1.69
2023-02-06T07:48:46.784Z,-1.60
2023-02-06T07:58:46.944Z,-1.33
2023-02-06T08:08:46.908Z,-1.31
2023-02-06T08:18:46.730Z,-1.38
2023-02-06T08:28:46.626Z,-1.42
2023-02-06T08:38:46.905Z,-1.48
2023-02-06T08:48:46.958Z,-1.26
2023-02-06T08:58:46.815Z,-0.94
2023-02-06T09:08:46.992Z,-0.84
2023-02-06T09:18:46.849Z,-0.93
2023-02-06T09:28:46.903Z,-0.88
2023-02-06T09:38:46.884Z,-0.62
2023-02-06T09:48:46.809Z,-0.12
2023-02-06T09:58:46.904Z,0.88
2023-02-06T10:08:47.053Z,0.88
2023-02-06T10:18:46.825Z,0.93
2023-02-06T10:28:47.081Z,1.10
2023-02-06T10:38:46.877Z,1.06
2023-02-06T10:48:46.919Z,1.24
2023-02-06T10:58:47.002Z,1.32
2023-02-06T11:08:46.947Z,1.15
2023-02-06T11:18:46.907Z,1.33
2023-02-06T11:28:47.076Z,1.33
2023-02-06T11:38:46.938Z,1.24
2023-02-06T11:48:47.016Z,1.29
2023-02-06T11:58:47.058Z,1.37
2023-02-06T12:08:47.053Z,1.39
2023-02-06T12:18:47.197Z,1.52
2023-02-06T12:28:47.046Z,1.47
2023-02-06T12:38:47.120Z,1.67
2023-02-06T12:48:47.082Z,1.64
2023-02-06T12:58:46.880Z,1.79
2023-02-06T13:08:47.073Z,1.81
2023-02-06T13:18:46.988Z,2.52
2023-02-06T13:28:46.922Z,2.30
2023-02-06T13:38:47.071Z,2.16
2023-02-06T13:48:47.272Z,2.10
2023-02-06T13:58:47.225Z,2.27
2023-02-06T14:08:47.045Z,2.20
2023-02-06T14:18:46.940Z,2.16
2023-02-06T14:28:47.108Z,2.21
2023-02-06T14:38:47.067Z,2.00
2023-02-06T14:48:47.046Z,2.11
2023-02-06T14:58:47.119Z,2.05
2023-02-06T15:08:47.113Z,2.06
2023-02-06T15:18:47.122Z,1.92
2023-02-06T15:28:47.302Z,1.89
2023-02-06T15:38:47.169Z,1.73
2023-02-06T15:48:47.012Z,1.54
2023-02-06T15:58:47.392Z,1.45
2023-02-06T16:08:47.256Z,1.38
2023-02-06T16:18:47.127Z,0.65
2023-02-06T16:28:47.289Z,-0.42
2023-02-06T16:38:57.744Z,-0.98
2023-02-06T16:48:47.199Z,-0.93
2023-02-06T16:58:47.275Z,-0.62
2023-02-06T17:08:47.434Z,-0.70
2023-02-06T17:18:47.067Z,-0.58
2023-02-06T17:28:47.125Z,-0.55
2023-02-06T17:38:47.276Z,-0.22
2023-02-06T17:48:47.282Z,-0.01
2023-02-06T17:58:47.114Z,-0.10
2023-02-06T18:08:47.315Z,-0.21
2023-02-06T18:18:47.417Z,-0.71
2023-02-06T18:28:47.180Z,-1.29
2023-02-06T18:38:47.200Z,-1.75
2023-02-06T18:48:47.373Z,-2.16
2023-02-06T18:58:47.305Z,-2.01
2023-02-06T19:08:47.514Z,-2.18
2023-02-06T19:18:47.661Z,-2.67
